Time;durP1;ratioP1;P1;durP2;ratioP2;P2;SDS_P1;SDS_P2;PMS_P1;PMS_P2;Temp;Humidity;BMP_temperature;BMP_pressure;BME280_temperature;BME280_humidity;BME280_pressure;Samples;Min_cycle;Max_cycle;Signal;HPM_P1;HPM_P2
2023/12/05 00:04:11;;;;;;;16.20;5.45;;;;;;;-2.70;99.66;100535.50;4940300;29;20221;-63
2023/12/05 00:07:15;;;;;;;9.63;7.30;;;;;;;-2.64;99.64;100530.53;4920496;29;20196;-65
2023/12/05 00:10:44;;;;;;;8.50;5.00;;;;;;;-2.70;99.34;100522.25;4952519;29;20286;-63
2023/12/05 00:13:43;;;;;;;7.50;6.30;;;;;;;-2.77;100.00;100513.16;4893848;29;20237;-62
2023/12/05 00:16:47;;;;;;;11.95;4.72;;;;;;;-2.69;100.00;100510.69;4935737;29;20295;-63
2023/12/05 00:22:50;;;;;;;9.95;6.25;;;;;;;-2.63;99.25;100511.03;4918190;29;20300;-64
2023/12/05 00:29:08;;;;;;;9.02;4.03;;;;;;;-2.49;98.47;100517.84;4935720;29;20207;-64
2023/12/05 00:38:50;;;;;;;8.73;6.70;;;;;;;-2.40;98.07;100514.41;4944148;29;20197;-64
2023/12/05 00:42:31;;;;;;;11.43;4.60;;;;;;;-2.38;97.02;100509.84;4928068;29;20212;-64
2023/12/05 00:51:52;;;;;;;7.30;3.67;;;;;;;-2.23;95.56;100519.13;4931266;29;20284;-62
2023/12/05 00:54:43;;;;;;;9.45;4.30;;;;;;;-2.26;96.52;100516.75;4911360;29;20227;-62
2023/12/05 00:57:41;;;;;;;14.60;5.35;;;;;;;-2.25;95.98;100505.19;4916579;29;20196;-62
2023/12/05 01:00:43;;;;;;;10.43;5.30;;;;;;;-2.20;95.73;100507.44;4905002;29;20201;-64
2023/12/05 01:03:59;;;;;;;5.63;3.40;;;;;;;-2.24;95.48;100506.88;4912441;29;20219;-64
2023/12/05 01:06:55;;;;;;;10.45;6.13;;;;;;;-2.16;95.81;100515.97;4928412;29;20553;-63
2023/12/05 01:09:43;;;;;;;5.05;3.22;;;;;;;-2.13;95.52;100513.06;4921279;29;20272;-63
2023/12/05 01:12:37;;;;;;;8.98;4.32;;;;;;;-2.21;95.44;100517.19;4904890;29;20213;-64
2023/12/05 01:15:29;;;;;;;17.02;7.18;;;;;;;-2.23;95.53;100508.53;4896970;29;20226;-64
2023/12/05 01:25:19;;;;;;;12.73;4.63;;;;;;;-2.17;95.39;100511.63;4923401;29;20230;-64
2023/12/05 01:32:05;;;;;;;5.25;3.42;;;;;;;-2.18;95.11;100505.50;4915988;29;20622;-62
2023/12/05 01:34:56;;;;;;;10.25;5.63;;;;;;;-2.14;95.55;100506.94;4902565;29;20222;-63
2023/12/05 01:37:51;;;;;;;8.82;4.88;;;;;;;-2.04;95.44;100505.16;4890682;29;20201;-62
2023/12/05 01:40:55;;;;;;;8.50;3.42;;;;;;;-2.07;95.58;100497.47;4911757;29;20657;-59
2023/12/05 01:44:16;;;;;;;14.32;4.10;;;;;;;-2.03;95.21;100490.13;4885945;29;20201;-64
2023/12/05 01:50:37;;;;;;;11.60;5.10;;;;;;;-2.03;95.73;100490.13;4915941;29;20547;-65
2023/12/05 01:57:26;;;;;;;5.63;5.22;;;;;;;-2.04;94.71;100485.78;4899186;29;20244;-64
2023/12/05 02:00:40;;;;;;;19.38;14.32;;;;;;;-2.01;94.94;100481.03;4898965;29;20217;-63
2023/12/05 02:04:19;;;;;;;17.15;6.75;;;;;;;-1.98;94.63;100477.28;4892204;29;20221;-63
2023/12/05 02:07:29;;;;;;;4.88;4.47;;;;;;;-1.89;94.28;100472.00;4910382;29;20216;-65
2023/12/05 02:13:36;;;;;;;12.10;6.07;;;;;;;-1.86;94.04;100466.47;4908660;29;20209;-63
2023/12/05 02:20:06;;;;;;;5.30;4.63;;;;;;;-1.88;94.32;100457.78;4878650;29;20267;-64
2023/12/05 02:27:18;;;;;;;11.77;6.63;;;;;;;-1.93;94.48;100441.44;4850913;29;20210;-61
2023/12/05 02:37:41;;;;;;;21.20;6.28;;;;;;;-1.92;94.69;100423.72;4859786;29;20203;-61
2023/12/05 02:41:13;;;;;;;6.80;3.72;;;;;;;-1.99;94.71;100423.44;4832860;29;20695;-65
2023/12/05 02:44:59;;;;;;;25.63;7.00;;;;;;;-1.96;94.80;100425.78;4873692;29;20729;-63
2023/12/05 02:48:33;;;;;;;16.25;4.13;;;;;;;-1.93;94.46;100432.63;4842824;29;20219;-64
2023/12/05 02:55:40;;;;;;;5.75;4.85;;;;;;;-1.90;94.28;100419.13;4865890;29;20219;-64
2023/12/05 03:02:28;;;;;;;8.45;4.57;;;;;;;-1.86;94.19;100412.56;4850483;29;20691;-63
2023/12/05 03:09:08;;;;;;;15.25;6.13;;;;;;;-1.88;94.98;100414.50;4879472;29;20204;-64
2023/12/05 03:16:18;;;;;;;6.57;3.65;;;;;;;-1.83;94.08;100426.41;4901956;29;20229;-64
2023/12/05 03:19:24;;;;;;;14.48;5.15;;;;;;;-1.87;94.59;100416.19;4912905;29;20185;-63
2023/12/05 03:22:23;;;;;;;10.43;4.80;;;;;;;-1.85;94.84;100406.31;4885623;29;20776;-63
2023/12/05 03:28:15;;;;;;;11.40;5.68;;;;;;;-1.81;94.99;100407.72;4904270;29;20236;-63
2023/12/05 03:31:15;;;;;;;5.57;4.55;;;;;;;-1.77;94.24;100417.06;4902413;29;20288;-63
2023/12/05 03:34:48;;;;;;;6.50;5.72;;;;;;;-1.76;94.17;100419.59;4925997;29;20306;-65
2023/12/05 03:41:33;;;;;;;8.80;5.88;;;;;;;-1.76;94.42;100416.09;4924504;29;20235;-63
2023/12/05 03:58:54;;;;;;;16.42;7.28;;;;;;;-1.65;94.63;100417.81;4927570;29;20240;-64
2023/12/05 04:05:03;;;;;;;9.40;7.05;;;;;;;-1.69;94.48;100424.38;4914296;29;20212;-64
2023/12/05 04:11:47;;;;;;;32.58;9.95;;;;;;;-1.77;94.73;100419.72;4906601;29;20297;-64
2023/12/05 04:15:11;;;;;;;25.48;6.05;;;;;;;-1.78;95.11;100408.25;4898025;29;20310;-65
2023/12/05 04:18:42;;;;;;;12.25;4.75;;;;;;;-1.72;95.03;100417.50;4922848;29;20294;-64
2023/12/05 04:21:50;;;;;;;13.00;6.38;;;;;;;-1.77;95.21;100409.94;4896478;29;20206;-65
2023/12/05 04:24:55;;;;;;;16.23;5.95;;;;;;;-1.70;95.56;100414.72;4898922;29;20224;-63
2023/12/05 04:34:58;;;;;;;12.77;8.20;;;;;;;-1.74;95.33;100423.94;4924395;29;20591;-64
2023/12/05 04:37:57;;;;;;;6.47;3.45;;;;;;;-1.66;95.05;100416.97;4879577;29;20208;-63
2023/12/05 04:51:38;;;;;;;12.68;5.60;;;;;;;-1.64;95.43;100409.69;4913266;29;20196;-64
2023/12/05 04:54:37;;;;;;;14.82;7.00;;;;;;;-1.79;95.37;100405.75;4926097;29;20613;-64
2023/12/05 04:57:34;;;;;;;10.60;5.60;;;;;;;-1.68;95.54;100413.59;4927567;29;20680;-65
2023/12/05 05:00:57;;;;;;;9.18;5.72;;;;;;;-1.58;94.99;100398.53;4913951;29;20193;-63
2023/12/05 05:03:53;;;;;;;6.28;5.10;;;;;;;-1.60;95.25;100405.81;4908542;29;20566;-64
2023/12/05 05:17:28;;;;;;;8.00;5.07;;;;;;;-1.57;95.12;100400.22;6194235;22;1528121;-65
2023/12/05 05:19:57;;;;;;;6.60;3.70;;;;;;;-1.60;94.84;100395.22;6254436;23;20148;-65
2023/12/05 05:22:26;;;;;;;8.43;5.30;;;;;;;-1.51;94.91;100389.06;6254687;23;20164;-64
2023/12/05 05:24:55;;;;;;;4.68;4.25;;;;;;;-1.50;94.68;100400.53;6252732;23;20662;-63
2023/12/05 05:27:26;;;;;;;12.82;5.60;;;;;;;-1.45;94.35;100395.63;6254443;22;20211;-63
2023/12/05 05:29:55;;;;;;;16.75;6.05;;;;;;;-1.49;94.53;100408.34;6254389;22;20163;-65
2023/12/05 05:32:24;;;;;;;8.25;4.60;;;;;;;-1.47;94.57;100395.78;6254251;22;20546;-65
2023/12/05 05:34:54;;;;;;;5.75;4.43;;;;;;;-1.49;94.39;100403.03;6254067;23;20206;-66
2023/12/05 05:37:23;;;;;;;16.10;7.35;;;;;;;-1.51;94.92;100398.84;6254617;23;20148;-66
2023/12/05 05:39:53;;;;;;;10.00;5.25;;;;;;;-1.46;95.01;100405.44;6252726;23;20235;-65
2023/12/05 05:42:22;;;;;;;10.32;6.75;;;;;;;-1.46;94.55;100402.78;6254377;22;20152;-64
2023/12/05 05:44:51;;;;;;;18.77;6.43;;;;;;;-1.41;94.91;100403.19;6253887;23;20659;-65
2023/12/05 05:47:20;;;;;;;8.32;3.58;;;;;;;-1.32;94.28;100404.19;6254306;23;20160;-65
2023/12/05 05:49:49;;;;;;;12.52;5.00;;;;;;;-1.29;93.83;100408.38;6254345;23;20213;-65
2023/12/05 05:52:19;;;;;;;6.68;4.32;;;;;;;-1.38;94.18;100410.88;6254542;23;20238;-65
2023/12/05 05:54:50;;;;;;;14.25;5.75;;;;;;;-1.28;94.71;100415.34;6254299;23;20184;-65
2023/12/05 05:57:19;;;;;;;11.05;5.18;;;;;;;-1.27;94.15;100412.56;6252732;23;20179;-66
2023/12/05 05:59:51;;;;;;;9.68;3.85;;;;;;;-1.31;94.33;100416.47;6253820;23;20187;-65
2023/12/05 06:02:20;;;;;;;6.68;4.05;;;;;;;-1.30;94.51;100404.88;6254206;22;20187;-64
2023/12/05 06:04:48;;;;;;;10.43;4.38;;;;;;;-1.28;94.87;100420.66;6253692;23;20237;-66
2023/12/05 06:07:19;;;;;;;13.65;5.07;;;;;;;-1.22;94.02;100422.78;6253587;23;20202;-66
2023/12/05 06:09:48;;;;;;;9.23;5.43;;;;;;;-1.26;94.56;100424.88;6253753;23;20155;-65
2023/12/05 06:12:17;;;;;;;10.55;5.75;;;;;;;-1.27;94.83;100419.69;6254093;23;20593;-62
2023/12/05 06:14:47;;;;;;;12.82;6.75;;;;;;;-1.24;93.63;100422.06;6253658;23;20180;-64
2023/12/05 06:17:16;;;;;;;15.68;6.45;;;;;;;-1.23;94.02;100419.28;6250053;23;20798;-63
2023/12/05 06:19:45;;;;;;;11.50;4.47;;;;;;;-1.22;93.82;100414.81;6247250;23;20243;-65
2023/12/05 06:22:21;;;;;;;16.08;8.68;;;;;;;-1.25;94.60;100425.69;6247061;23;20148;-65
2023/12/05 06:24:50;;;;;;;9.50;5.35;;;;;;;-1.30;94.96;100428.75;6246855;23;20186;-66
2023/12/05 06:27:20;;;;;;;8.32;6.20;;;;;;;-1.33;94.36;100419.28;6246915;23;20175;-66
2023/12/05 06:29:49;;;;;;;9.77;6.28;;;;;;;-1.25;94.49;100423.88;6246714;23;20155;-63
2023/12/05 06:32:21;;;;;;;9.50;8.13;;;;;;;-1.33;95.08;100421.94;6246911;23;20160;-64
2023/12/05 06:34:50;;;;;;;7.10;3.63;;;;;;;-1.29;94.92;100419.81;6246620;23;20191;-65
2023/12/05 06:37:20;;;;;;;15.07;7.10;;;;;;;-1.20;95.04;100418.16;6246919;23;20148;-65
2023/12/05 06:39:51;;;;;;;5.72;3.25;;;;;;;-1.25;95.16;100420.38;6246876;23;20605;-65
2023/12/05 06:42:20;;;;;;;5.93;4.47;;;;;;;-1.20;94.78;100418.16;6246664;23;20152;-64
2023/12/05 06:44:49;;;;;;;10.38;4.90;;;;;;;-1.20;94.30;100408.38;6246550;23;20187;-64
2023/12/05 06:47:17;;;;;;;3.63;3.28;;;;;;;-1.27;93.99;100412.56;6246686;23;20168;-65
2023/12/05 06:49:47;;;;;;;14.50;6.18;;;;;;;-1.22;94.49;100414.81;6220016;23;20167;-65
2023/12/05 06:52:16;;;;;;;8.68;5.30;;;;;;;-1.22;94.33;100422.78;6219714;23;20552;-65
2023/12/05 06:54:45;;;;;;;13.60;7.40;;;;;;;-1.23;94.32;100421.94;6246630;23;20176;-65
2023/12/05 06:57:15;;;;;;;6.90;3.05;;;;;;;-1.24;94.54;100424.72;6246640;23;20163;-66
2023/12/05 06:59:44;;;;;;;7.10;5.68;;;;;;;-1.21;93.78;100413.84;6246632;23;20502;-64
2023/12/05 07:02:13;;;;;;;13.63;6.30;;;;;;;-1.23;94.21;100413.97;6246473;23;20172;-66
2023/12/05 07:04:42;;;;;;;15.82;8.10;;;;;;;-1.14;94.38;100414.94;6246910;23;20507;-65
2023/12/05 07:07:11;;;;;;;8.95;5.25;;;;;;;-1.05;94.64;100403.50;6246760;23;20686;-65
2023/12/05 07:09:40;;;;;;;9.30;6.07;;;;;;;-1.07;93.88;100402.81;6246771;23;20251;-65
2023/12/05 07:12:09;;;;;;;10.85;4.28;;;;;;;-1.10;93.81;100397.75;6246592;23;20239;-64
2023/12/05 07:14:39;;;;;;;15.65;8.38;;;;;;;-1.09;93.59;100394.13;6218946;23;20192;-66
2023/12/05 07:17:08;;;;;;;8.80;7.03;;;;;;;-1.08;93.85;100395.81;6246012;23;20573;-65
2023/12/05 07:19:36;;;;;;;5.72;3.30;;;;;;;-1.15;93.96;100400.00;6246669;23;20172;-65
2023/12/05 07:22:05;;;;;;;12.80;8.93;;;;;;;-1.16;93.94;100401.81;6246612;23;20160;-65
2023/12/05 07:24:34;;;;;;;12.70;7.90;;;;;;;-1.20;94.38;100404.88;6247664;23;20218;-64
2023/12/05 07:27:03;;;;;;;8.60;6.22;;;;;;;-1.16;94.14;100409.75;6254262;23;20165;-65
2023/12/05 07:29:32;;;;;;;6.20;5.28;;;;;;;-1.08;94.12;100409.09;6247888;23;20160;-66
2023/12/05 07:32:02;;;;;;;11.95;7.65;;;;;;;-1.11;94.12;100394.25;6247661;23;20164;-66
2023/12/05 07:34:31;;;;;;;10.05;6.97;;;;;;;-1.13;94.01;100404.19;6246207;23;20532;-65
2023/12/05 07:37:00;;;;;;;10.52;6.40;;;;;;;-1.06;94.39;100401.81;6246231;23;20156;-65
2023/12/05 07:39:29;;;;;;;10.73;5.47;;;;;;;-1.14;93.52;100397.19;6246306;23;20247;-64
2023/12/05 07:41:58;;;;;;;10.05;4.35;;;;;;;-1.07;93.70;100400.16;6246268;23;20617;-65
2023/12/05 07:44:27;;;;;;;7.35;5.57;;;;;;;-1.10;94.00;100395.09;6246165;23;20245;-65
2023/12/05 07:46:56;;;;;;;4.75;4.05;;;;;;;-1.09;93.73;100402.09;6246112;23;20410;-64
2023/12/05 07:49:27;;;;;;;6.97;6.32;;;;;;;-1.08;93.90;100407.28;6246178;23;20609;-62
2023/12/05 07:51:56;;;;;;;10.52;4.90;;;;;;;-1.12;94.02;100411.19;6246034;23;20160;-62
2023/12/05 07:54:26;;;;;;;10.20;5.82;;;;;;;-1.08;93.40;100422.38;6246269;23;20188;-63
2023/12/05 07:56:54;;;;;;;12.85;6.50;;;;;;;-1.13;93.64;100417.47;6246838;23;20633;-66
2023/12/05 07:59:23;;;;;;;11.25;6.10;;;;;;;-1.15;93.73;100414.09;6246609;23;20589;-66
2023/12/05 08:01:52;;;;;;;7.95;5.10;;;;;;;-1.02;93.91;100411.19;6246334;23;20631;-63
2023/12/05 08:04:21;;;;;;;16.33;9.15;;;;;;;-1.15;92.92;100418.56;6246146;23;20180;-65
2023/12/05 08:06:52;;;;;;;15.90;5.88;;;;;;;-1.11;93.55;100417.31;6246541;23;20263;-63
2023/12/05 08:09:21;;;;;;;10.65;6.05;;;;;;;-0.97;93.30;100408.97;6247553;23;20153;-65
2023/12/05 08:11:49;;;;;;;17.33;11.02;;;;;;;-1.06;92.58;100410.63;6221404;23;20387;-65
2023/12/05 08:14:18;;;;;;;6.88;6.00;;;;;;;-0.96;93.15;100410.63;6248133;23;20176;-65
2023/12/05 08:16:47;;;;;;;6.68;3.85;;;;;;;-0.93;93.27;100410.34;6248838;23;20153;-65
2023/12/05 08:19:16;;;;;;;12.57;5.00;;;;;;;-0.87;92.96;100415.06;6249439;23;20585;-64
2023/12/05 08:21:45;;;;;;;10.25;5.50;;;;;;;-0.91;92.24;100419.00;6247914;23;20239;-66
2023/12/05 08:24:17;;;;;;;11.25;5.25;;;;;;;-0.84;92.99;100420.13;6247553;23;20283;-65
2023/12/05 08:26:46;;;;;;;10.32;5.40;;;;;;;-0.99;92.58;100414.41;6247545;23;20180;-65
2023/12/05 08:29:16;;;;;;;15.85;4.60;;;;;;;-0.94;92.47;100419.28;6247977;23;20203;-66
2023/12/05 08:31:45;;;;;;;12.20;7.85;;;;;;;-0.95;92.76;100412.28;6250014;23;20163;-64
2023/12/05 08:34:14;;;;;;;16.08;5.95;;;;;;;-0.91;92.32;100419.00;6248913;23;20184;-65
2023/12/05 08:36:45;;;;;;;10.77;7.35;;;;;;;-0.90;92.62;100423.34;6248949;23;20155;-65
2023/12/05 08:39:13;;;;;;;11.80;6.18;;;;;;;-0.84;92.15;100420.13;6245864;23;20243;-64
2023/12/05 08:41:44;;;;;;;16.98;9.70;;;;;;;-0.70;91.84;100419.69;6245772;23;20231;-65
2023/12/05 08:44:12;;;;;;;17.17;7.82;;;;;;;-0.77;92.15;100418.56;6246068;23;20191;-65
2023/12/05 08:46:41;;;;;;;15.63;7.45;;;;;;;-0.79;92.45;100417.06;6245782;23;20238;-65
2023/12/05 08:49:10;;;;;;;14.55;6.55;;;;;;;-0.54;91.72;100427.94;6219214;23;20165;-65
2023/12/05 08:51:39;;;;;;;12.43;7.57;;;;;;;-0.54;91.12;100422.63;6246844;23;20164;-63
2023/12/05 08:54:08;;;;;;;18.33;8.15;;;;;;;-0.48;91.23;100421.19;6247377;23;20219;-65
2023/12/05 08:56:37;;;;;;;17.05;8.07;;;;;;;-0.58;91.02;100429.19;6246336;23;20164;-66
2023/12/05 08:59:07;;;;;;;11.35;6.32;;;;;;;-0.51;90.72;100438.28;6245730;23;20230;-64
2023/12/05 09:01:36;;;;;;;6.63;4.35;;;;;;;-0.46;90.73;100429.88;6246365;23;20152;-64
2023/12/05 09:04:04;;;;;;;11.55;7.07;;;;;;;-0.41;90.90;100434.75;6245708;23;20222;-64
2023/12/05 09:06:33;;;;;;;13.25;9.52;;;;;;;-0.39;90.54;100441.63;6246233;23;20202;-65
2023/12/05 09:09:03;;;;;;;11.43;5.78;;;;;;;-0.42;90.72;100441.88;6245566;23;20164;-64
2023/12/05 09:11:32;;;;;;;12.38;8.57;;;;;;;-0.36;90.09;100429.84;6245596;23;20163;-63
2023/12/05 09:14:00;;;;;;;11.43;8.30;;;;;;;-0.25;89.50;100435.84;6245526;23;20238;-64
2023/12/05 09:16:30;;;;;;;10.25;6.78;;;;;;;-0.20;89.64;100432.75;6245840;23;20199;-63
2023/12/05 09:18:59;;;;;;;12.77;7.65;;;;;;;-0.18;89.51;100434.28;6245101;23;20195;-67
2023/12/05 09:21:28;;;;;;;17.45;7.32;;;;;;;-0.05;88.58;100436.63;6245376;23;20195;-65
2023/12/05 09:23:57;;;;;;;10.23;6.30;;;;;;;-0.10;88.68;100428.25;6246016;23;20180;-65
2023/12/05 09:26:26;;;;;;;8.35;7.30;;;;;;;0.00;88.70;100426.41;6245867;23;20161;-67
2023/12/05 09:28:55;;;;;;;12.40;4.53;;;;;;;-0.05;88.41;100434.78;6245742;23;20176;-66
2023/12/05 09:31:23;;;;;;;12.52;7.10;;;;;;;0.05;88.72;100432.09;6245526;23;20680;-64
2023/12/05 09:33:55;;;;;;;7.38;6.70;;;;;;;0.16;88.45;100423.94;6245620;23;20178;-64
2023/12/05 09:36:24;;;;;;;5.53;4.57;;;;;;;0.15;87.97;100424.91;6245496;23;20191;-64
2023/12/05 09:38:53;;;;;;;8.98;6.28;;;;;;;0.22;87.72;100430.50;6246176;23;20167;-64
2023/12/05 09:41:22;;;;;;;14.20;8.00;;;;;;;0.22;87.14;100426.00;6246416;23;20164;-65
2023/12/05 09:43:52;;;;;;;9.20;5.70;;;;;;;0.21;86.96;100424.34;6245103;23;20255;-65
2023/12/05 09:46:22;;;;;;;13.15;7.15;;;;;;;0.22;86.88;100425.19;6218484;23;20164;-66
2023/12/05 09:49:00;;;;;;;23.75;5.70;;;;;;;0.30;86.77;100419.94;6245969;23;20255;-64
2023/12/05 09:51:30;;;;;;;21.85;8.35;;;;;;;0.41;86.25;100425.91;6245865;23;20156;-65
2023/12/05 09:54:01;;;;;;;10.23;5.15;;;;;;;0.51;85.63;100415.22;6247352;23;20531;-65
2023/12/05 09:56:30;;;;;;;13.30;7.25;;;;;;;0.68;85.20;100419.72;6247465;23;20153;-65
2023/12/05 09:59:00;;;;;;;7.60;5.95;;;;;;;0.80;84.54;100409.69;6246916;23;20198;-64
2023/12/05 10:01:30;;;;;;;13.85;4.97;;;;;;;0.94;83.75;100406.50;6247501;23;20164;-64
2023/12/05 10:04:02;;;;;;;9.32;4.80;;;;;;;0.97;83.08;100411.50;6247052;23;20192;-65
2023/12/05 10:06:37;;;;;;;12.38;9.98;;;;;;;0.81;83.49;100411.38;6247001;23;20174;-64
2023/12/05 10:09:09;;;;;;;5.85;4.80;;;;;;;1.00;83.04;100410.38;6247308;23;20172;-65
2023/12/05 10:11:39;;;;;;;8.63;5.90;;;;;;;0.81;84.34;100414.03;6247177;23;20492;-65
2023/12/05 10:14:08;;;;;;;6.15;4.80;;;;;;;0.64;84.14;100410.34;6246744;23;20180;-63
2023/12/05 10:16:37;;;;;;;7.60;5.50;;;;;;;0.83;84.11;100404.06;6246927;23;20163;-67
2023/12/05 10:19:09;;;;;;;17.42;6.18;;;;;;;0.73;84.57;100405.94;6247509;23;20589;-64
2023/12/05 10:21:39;;;;;;;10.50;6.00;;;;;;;0.84;84.55;100406.56;6246878;23;20222;-66
2023/12/05 10:24:08;;;;;;;9.77;4.95;;;;;;;0.82;84.47;100403.22;6246639;23;20187;-66
2023/12/05 10:26:46;;;;;;;10.52;7.00;;;;;;;0.59;84.66;100401.13;6246869;23;20152;-65
2023/12/05 10:29:16;;;;;;;13.70;6.80;;;;;;;0.45;85.63;100391.84;6246548;23;20172;-64
2023/12/05 10:31:45;;;;;;;9.13;5.90;;;;;;;0.66;85.18;100386.25;6246922;23;20160;-64
2023/12/05 10:34:15;;;;;;;23.67;6.65;;;;;;;0.71;85.06;100384.81;6246571;23;20194;-65
2023/12/05 10:37:01;;;;;;;15.65;8.43;;;;;;;0.67;84.75;100382.59;6247823;23;20195;-63
2023/12/05 10:39:36;;;;;;;4.47;3.92;;;;;;;0.70;84.33;100372.47;6248062;23;20153;-63
2023/12/05 10:42:07;;;;;;;14.05;8.35;;;;;;;0.62;84.73;100380.41;6221312;23;20168;-65
2023/12/05 10:44:39;;;;;;;12.20;5.95;;;;;;;0.54;85.22;100371.47;6247905;23;20622;-65
2023/12/05 10:47:09;;;;;;;7.45;3.78;;;;;;;0.52;85.28;100376.13;6248680;23;20203;-66
2023/12/05 10:49:42;;;;;;;12.02;7.80;;;;;;;0.49;85.48;100373.75;6247865;23;20172;-66
2023/12/05 10:52:13;;;;;;;5.72;3.88;;;;;;;0.41;86.03;100367.34;6247301;23;20231;-64
2023/12/05 10:54:42;;;;;;;8.80;4.90;;;;;;;0.51;85.92;100372.63;6247245;23;20206;-66
2023/12/05 10:57:11;;;;;;;7.18;3.92;;;;;;;0.54;85.49;100368.81;6246973;23;20168;-64
2023/12/05 10:59:41;;;;;;;12.27;6.57;;;;;;;0.62;85.81;100366.25;6247752;23;20628;-66
2023/12/05 11:02:13;;;;;;;4.53;3.35;;;;;;;0.58;85.78;100363.03;6220105;23;20608;-65
2023/12/05 11:04:44;;;;;;;15.13;7.43;;;;;;;0.61;85.36;100361.91;6246768;22;20218;-65
2023/12/05 11:07:13;;;;;;;8.50;7.72;;;;;;;0.72;85.34;100359.03;6247267;23;20148;-66
2023/12/05 11:09:44;;;;;;;5.63;3.20;;;;;;;0.67;85.38;100358.63;6246928;23;20191;-65
2023/12/05 11:12:14;;;;;;;8.65;7.90;;;;;;;0.70;85.12;100353.84;6247433;23;20156;-67
2023/12/05 11:14:47;;;;;;;4.88;3.20;;;;;;;0.83;84.80;100356.94;6251333;23;20188;-66
2023/12/05 11:17:24;;;;;;;12.82;4.65;;;;;;;0.97;84.03;100357.41;6249300;23;20168;-66
2023/12/05 11:20:07;;;;;;;10.57;6.35;;;;;;;0.82;84.50;100349.13;6250770;23;20156;-66
2023/12/05 11:22:50;;;;;;;5.80;5.30;;;;;;;0.81;84.67;100342.13;6250529;23;20470;-66
2023/12/05 11:25:40;;;;;;;8.95;5.25;;;;;;;0.71;84.81;100346.69;6250268;23;20196;-66
2023/12/05 11:28:22;;;;;;;7.53;4.57;;;;;;;0.67;85.17;100348.81;6248691;23;20175;-65
2023/12/05 11:31:12;;;;;;;7.18;3.90;;;;;;;0.82;84.96;100343.81;6248728;23;20206;-67
2023/12/05 11:34:15;;;;;;;5.78;5.20;;;;;;;0.93;84.38;100354.19;6248633;23;20195;-65
2023/12/05 11:36:58;;;;;;;8.10;4.35;;;;;;;0.84;84.42;100353.31;6247551;23;20174;-65
2023/12/05 11:39:29;;;;;;;6.00;5.43;;;;;;;0.93;84.40;100351.53;6247612;23;20228;-66
2023/12/05 11:42:12;;;;;;;9.43;5.32;;;;;;;1.02;84.03;100358.59;6249155;23;20149;-65
2023/12/05 11:44:41;;;;;;;9.30;6.35;;;;;;;1.11;83.94;100349.72;6248200;23;20199;-64
2023/12/05 11:47:17;;;;;;;15.80;7.65;;;;;;;0.98;84.02;100356.41;6249544;23;20155;-64
2023/12/05 11:49:53;;;;;;;7.07;3.85;;;;;;;1.09;83.74;100359.69;6248263;23;20199;-64
2023/12/05 11:52:27;;;;;;;9.02;3.30;;;;;;;1.16;84.12;100358.06;6248584;23;20158;-65
2023/12/05 11:54:56;;;;;;;4.65;3.63;;;;;;;1.23;83.18;100353.78;6247856;23;20639;-66
2023/12/05 11:57:33;;;;;;;5.82;4.45;;;;;;;1.15;83.85;100352.91;6247959;23;20491;-65
2023/12/05 12:00:03;;;;;;;10.05;5.15;;;;;;;1.05;84.03;100345.00;6247677;23;20237;-67
2023/12/05 12:02:49;;;;;;;5.45;4.00;;;;;;;1.07;84.41;100347.47;6247895;23;20244;-67
2023/12/05 12:05:18;;;;;;;5.80;4.70;;;;;;;1.07;85.18;100347.47;6247139;23;20180;-66
2023/12/05 12:07:52;;;;;;;8.40;4.80;;;;;;;0.99;86.32;100342.09;6246141;23;20148;-66
2023/12/05 12:10:22;;;;;;;8.52;6.55;;;;;;;1.14;86.13;100346.72;6246239;23;20484;-64
2023/12/05 12:12:52;;;;;;;11.18;8.60;;;;;;;1.12;86.32;100340.69;6246309;23;20161;-64
2023/12/05 12:15:22;;;;;;;6.78;3.95;;;;;;;1.26;85.66;100337.47;6245994;23;20184;-63
2023/12/05 12:17:51;;;;;;;6.18;3.63;;;;;;;1.46;85.21;100337.28;6245600;23;20172;-64
2023/12/05 12:20:20;;;;;;;7.88;5.60;;;;;;;1.28;85.16;100345.31;6246179;23;20148;-66
2023/12/05 12:22:52;;;;;;;5.78;4.45;;;;;;;1.29;86.46;100342.50;6246255;23;20155;-64
2023/12/05 12:25:24;;;;;;;8.77;5.50;;;;;;;1.44;85.13;100345.44;6245646;23;20180;-65
2023/12/05 12:27:53;;;;;;;6.43;2.97;;;;;;;1.41;84.84;100340.41;6245677;23;20556;-64
2023/12/05 12:30:22;;;;;;;5.53;3.83;;;;;;;1.33;84.92;100348.38;6247420;23;20172;-63
2023/12/05 12:32:56;;;;;;;8.98;4.22;;;;;;;1.26;85.53;100341.97;6248580;23;20156;-64
2023/12/05 12:35:28;;;;;;;9.10;6.05;;;;;;;1.28;85.78;100340.84;6249168;23;20183;-66
2023/12/05 12:38:00;;;;;;;9.73;5.15;;;;;;;1.30;85.42;100336.19;6246592;23;20153;-65
2023/12/05 12:40:29;;;;;;;5.90;4.55;;;;;;;1.07;86.76;100343.00;6246105;23;20144;-64
2023/12/05 12:42:58;;;;;;;7.25;5.35;;;;;;;1.15;87.58;100342.25;6246115;23;20199;-64
2023/12/05 12:45:27;;;;;;;7.55;6.15;;;;;;;1.17;87.31;100341.06;6245716;23;20187;-65
2023/12/05 12:47:57;;;;;;;4.78;4.25;;;;;;;1.14;87.42;100345.88;6248650;23;20152;-65
2023/12/05 12:50:26;;;;;;;5.88;3.25;;;;;;;1.12;87.22;100346.03;6250080;23;20196;-65
2023/12/05 12:52:55;;;;;;;10.75;4.72;;;;;;;1.09;88.21;100341.03;6249067;23;20232;-64
2023/12/05 12:55:25;;;;;;;9.90;4.32;;;;;;;1.19;88.77;100341.78;6248073;23;20180;-65
2023/12/05 12:57:54;;;;;;;7.05;4.60;;;;;;;1.08;88.25;100346.50;6245978;23;20156;-66
2023/12/05 13:00:23;;;;;;;6.70;5.35;;;;;;;1.02;88.98;100342.63;6248316;23;20183;-66
2023/12/05 13:03:05;;;;;;;7.07;5.68;;;;;;;1.15;89.13;100337.75;6250479;23;20160;-65
2023/12/05 13:05:35;;;;;;;4.00;3.42;;;;;;;1.14;89.46;100338.72;6250637;23;20183;-64
2023/12/05 13:08:05;;;;;;;4.95;4.45;;;;;;;0.93;90.81;100335.56;6250031;23;20528;-66
2023/12/05 13:10:38;;;;;;;7.60;3.83;;;;;;;0.91;91.43;100342.88;6250851;23;20632;-66
2023/12/05 13:13:07;;;;;;;7.05;4.72;;;;;;;0.87;91.94;100339.66;6249815;23;20531;-65
2023/12/05 13:15:36;;;;;;;9.02;3.72;;;;;;;0.83;92.76;100343.63;6248051;23;20207;-66
2023/12/05 13:18:07;;;;;;;16.52;6.20;;;;;;;0.88;92.72;100343.16;6246656;23;20458;-64
2023/12/05 13:20:51;;;;;;;13.35;5.90;;;;;;;0.98;93.10;100349.25;6245855;23;20227;-65
2023/12/05 13:23:21;;;;;;;7.57;4.40;;;;;;;1.13;92.20;100346.88;6245811;23;20534;-65
2023/12/05 13:25:51;;;;;;;9.25;5.30;;;;;;;1.04;91.94;100347.81;6245343;23;20184;-63
2023/12/05 13:28:20;;;;;;;4.47;2.38;;;;;;;1.04;92.19;100342.47;6247389;23;20224;-63
2023/12/05 13:30:49;;;;;;;8.57;4.57;;;;;;;1.20;91.58;100340.78;6247888;23;20192;-62
2023/12/05 13:33:18;;;;;;;10.00;5.53;;;;;;;0.96;91.55;100345.94;6247865;23;20199;-64
2023/12/05 13:35:46;;;;;;;5.40;2.97;;;;;;;0.97;91.63;100352.09;6247360;23;20714;-64
2023/12/05 13:38:15;;;;;;;9.93;5.55;;;;;;;0.95;91.73;100352.25;6247725;23;20163;-65
2023/12/05 13:40:44;;;;;;;8.18;7.00;;;;;;;0.79;92.37;100338.75;6247245;23;20172;-65
2023/12/05 13:43:17;;;;;;;7.28;5.40;;;;;;;0.74;92.82;100344.56;6247287;23;20164;-66
2023/12/05 13:45:58;;;;;;;8.27;5.05;;;;;;;0.84;92.83;100344.47;6247861;23;20184;-66
2023/12/05 13:48:26;;;;;;;10.90;5.90;;;;;;;0.73;93.82;100344.69;6247158;23;20198;-66
2023/12/05 13:50:55;;;;;;;11.95;6.00;;;;;;;0.64;94.00;100334.97;6247192;23;20267;-66
2023/12/05 13:53:24;;;;;;;8.55;4.35;;;;;;;0.68;94.58;100347.81;6220419;23;20164;-65
2023/12/05 13:55:52;;;;;;;13.60;6.43;;;;;;;0.70;94.79;100350.34;6246540;23;20263;-66
2023/12/05 13:58:23;;;;;;;9.50;3.90;;;;;;;0.77;94.03;100354.06;6247415;23;20183;-65
2023/12/05 14:00:51;;;;;;;8.63;4.28;;;;;;;0.56;95.61;100353.53;6247279;23;20175;-65
2023/12/05 14:03:20;;;;;;;12.38;6.38;;;;;;;0.61;95.81;100352.09;6247317;23;20175;-66
2023/12/05 14:05:52;;;;;;;14.98;6.25;;;;;;;0.61;96.50;100353.91;6247092;23;20180;-66
2023/12/05 14:08:21;;;;;;;4.90;4.25;;;;;;;0.61;96.50;100356.56;6247373;23;20195;-65
2023/12/05 14:10:51;;;;;;;9.65;5.50;;;;;;;0.50;97.14;100349.63;6247351;23;20176;-63
2023/12/05 14:13:19;;;;;;;9.18;6.20;;;;;;;0.49;97.42;100358.59;6247692;23;20171;-66
2023/12/05 14:15:49;;;;;;;6.82;5.18;;;;;;;0.51;97.54;100355.81;6220193;23;20585;-65
2023/12/05 14:18:18;;;;;;;5.38;4.85;;;;;;;0.50;97.35;100359.44;6247117;23;20255;-65
2023/12/05 14:20:47;;;;;;;11.35;4.75;;;;;;;0.42;97.80;100358.38;6247266;23;20388;-64
2023/12/05 14:23:18;;;;;;;10.98;6.38;;;;;;;0.31;99.19;100355.94;6247181;23;20149;-65
2023/12/05 14:25:48;;;;;;;5.55;5.03;;;;;;;0.32;99.02;100362.94;6247025;23;20187;-64